createdAt,value
2018-01-01T14:50:29.343Z,35.50
2018-01-01T15:05:06.594Z,35.96
2018-01-01T15:06:06.552Z,46.25
2018-01-01T15:08:01.111Z,66.01
2018-01-01T15:09:01.012Z,72.61
2018-01-01T15:10:56.538Z,80.72
2018-01-01T15:11:56.493Z,83.62
2018-01-01T15:13:50.968Z,86.65
2018-01-01T15:14:50.968Z,87.88
2018-01-01T15:16:45.451Z,88.45
2018-01-01T15:17:45.424Z,88.54
2018-01-01T15:19:39.906Z,89.68
2018-01-01T15:20:39.912Z,89.58
2018-01-01T15:22:34.441Z,89.87
2018-01-01T15:23:34.376Z,90.06
2018-01-01T15:25:28.850Z,90.34
2018-01-01T15:26:28.829Z,90.25
2018-01-01T15:28:23.340Z,90.34
2018-01-01T15:29:23.282Z,90.25
2018-01-01T15:31:17.737Z,90.63
2018-01-01T15:32:17.751Z,91.19
2018-01-01T15:34:12.217Z,91.10
2018-01-01T15:35:12.237Z,91.10
2018-01-01T15:37:06.684Z,91.05
2018-01-01T15:38:06.672Z,91.29
2018-01-01T15:40:01.129Z,91.48
2018-01-01T15:41:01.106Z,91.76
2018-01-01T15:42:55.569Z,91.62
2018-01-01T15:43:55.568Z,91.57
2018-01-01T15:45:49.054Z,91.48
2018-01-01T15:46:49.036Z,91.76
2018-01-01T15:48:42.497Z,91.62
2018-01-01T15:49:42.475Z,91.67
2018-01-01T15:51:36.014Z,91.72
2018-01-01T15:52:35.941Z,91.57
2018-01-01T15:54:29.423Z,91.95
2018-01-01T15:55:29.431Z,91.86
2018-01-01T15:57:23.971Z,91.62
2018-01-01T15:58:23.910Z,91.38
2018-01-01T16:00:17.368Z,91.95
2018-01-01T16:01:17.354Z,91.72
2018-01-01T16:03:11.851Z,91.67
2018-01-01T16:04:11.790Z,91.76
2018-01-01T16:06:06.236Z,91.81
2018-01-01T16:07:06.248Z,91.81
2018-01-01T16:08:59.739Z,92.05
2018-01-01T16:09:59.765Z,91.76
2018-01-01T16:11:54.239Z,92.14
2018-01-01T16:12:54.128Z,91.91
2018-01-01T16:14:49.603Z,92.19
2018-01-01T16:15:49.682Z,92.19
2018-01-01T16:17:44.159Z,92.14
2018-01-01T16:18:44.029Z,92.24
2018-01-01T16:20:37.480Z,92.14
2018-01-01T16:21:37.517Z,92.43
2018-01-01T16:23:31.952Z,92.61
2018-01-01T16:24:31.937Z,92.33
2018-01-01T16:26:25.458Z,92.80
2018-01-01T16:27:25.446Z,92.80
2018-01-01T16:29:20.850Z,92.80
2018-01-01T16:30:20.825Z,92.66
2018-01-01T16:32:14.340Z,92.94
2018-01-01T16:33:14.341Z,92.76
2018-01-01T16:35:07.738Z,93.27
2018-01-01T16:36:07.724Z,92.57
2018-01-01T16:38:02.232Z,92.57
2018-01-01T16:39:02.189Z,93.23
2018-01-01T16:40:56.819Z,92.94
2018-01-01T16:41:56.631Z,92.94
2018-01-01T16:42:56.611Z,92.94
2018-01-01T16:43:56.595Z,93.13
2018-01-01T16:44:56.575Z,92.76
2018-01-01T16:45:56.588Z,92.94
2018-01-01T16:46:56.678Z,92.66
2018-01-01T16:47:56.704Z,92.76
2018-01-01T16:48:56.682Z,92.66
2018-01-01T16:49:56.663Z,92.94
2018-01-01T16:50:56.511Z,92.85
2018-01-01T16:51:56.510Z,92.94
2018-01-01T16:52:56.952Z,92.94
2018-01-01T16:53:56.498Z,93.04
2018-01-01T16:54:56.488Z,92.85
2018-01-01T16:55:56.478Z,92.76
2018-01-01T16:56:56.450Z,92.94
2018-01-01T16:57:56.435Z,92.66
2018-01-01T16:58:56.469Z,92.76
2018-01-01T16:59:56.569Z,92.94
2018-01-01T17:00:56.412Z,92.76
2018-01-01T17:01:56.403Z,93.13
2018-01-01T17:02:56.405Z,92.94
2018-01-01T17:03:56.624Z,92.94
2018-01-01T17:04:56.364Z,92.85
2018-01-01T17:05:56.367Z,93.23
2018-01-01T17:06:56.340Z,92.47
2018-01-01T17:07:56.345Z,92.57
2018-01-01T17:08:56.323Z,92.76
2018-01-01T17:09:56.339Z,92.19
2018-01-01T17:10:56.311Z,92.38
2018-01-01T17:11:56.307Z,92.38
2018-01-01T17:12:56.267Z,92.47
2018-01-01T17:13:56.267Z,92.29
2018-01-01T17:14:56.256Z,92.29
2018-01-01T17:15:56.265Z,92.47
2018-01-01T17:16:56.273Z,92.29
2018-01-01T17:17:56.201Z,92.19
2018-01-01T17:18:56.217Z,92.10
2018-01-01T17:19:56.219Z,92.19
2018-01-01T17:20:56.167Z,92.29
2018-01-01T17:21:56.289Z,92.29
2018-01-01T17:22:56.178Z,92.29
2018-01-01T17:23:56.154Z,92.19
2018-01-01T17:24:56.221Z,92.29
2018-01-01T17:25:56.114Z,92.10
2018-01-01T17:26:56.138Z,92.47
2018-01-01T17:27:56.109Z,92.19
2018-01-01T17:28:56.097Z,92.00
2018-01-01T17:29:56.098Z,92.29
2018-01-01T17:30:56.192Z,92.10
2018-01-01T17:31:56.052Z,92.10
2018-01-01T17:32:56.040Z,91.91
2018-01-01T17:33:56.057Z,92.00
2018-01-01T17:34:56.065Z,92.00
2018-01-01T17:35:56.018Z,91.81
2018-01-01T17:36:56.000Z,91.72
2018-01-01T17:37:55.996Z,91.91
2018-01-01T17:38:56.019Z,91.72
2018-01-01T17:39:55.966Z,91.72
2018-01-01T17:40:55.977Z,91.43
2018-01-01T17:41:55.979Z,91.72
2018-01-01T17:42:55.939Z,91.72
2018-01-01T17:43:55.956Z,91.72
2018-01-01T17:44:55.938Z,91.72
2018-01-01T17:45:55.943Z,92.00
2018-01-01T17:46:55.964Z,92.00
2018-01-01T17:47:56.106Z,91.91
2018-01-01T17:48:55.897Z,92.00
2018-01-01T17:49:55.900Z,92.19
2018-01-01T17:50:55.857Z,91.91
2018-01-01T17:51:55.831Z,91.72
2018-01-01T17:52:55.830Z,91.72
2018-01-01T17:53:55.819Z,91.91
2018-01-01T17:54:55.817Z,91.91
2018-01-01T17:55:55.788Z,92.00
2018-01-01T17:56:55.818Z,91.72
2018-01-01T17:57:55.768Z,91.62
2018-01-01T17:58:55.778Z,91.72
2018-01-01T17:59:55.785Z,91.72
2018-01-01T18:00:55.773Z,91.72
2018-01-01T18:01:55.738Z,91.91
2018-01-01T18:02:55.786Z,91.91
2018-01-01T18:03:55.702Z,91.72
2018-01-01T18:04:55.697Z,91.72
2018-01-01T18:05:55.680Z,91.81
2018-01-01T18:06:55.704Z,91.81
2018-01-01T18:07:55.732Z,91.81
2018-01-01T18:08:55.647Z,91.72
2018-01-01T18:09:55.662Z,92.00
2018-01-01T18:10:55.659Z,91.81
2018-01-01T18:11:55.659Z,91.72
2018-01-01T18:12:55.626Z,91.72
2018-01-01T18:13:55.591Z,92.10
2018-01-01T18:14:55.620Z,91.72
2018-01-01T18:15:55.582Z,91.72
2018-01-01T18:16:55.584Z,92.10
2018-01-01T18:17:55.579Z,91.91
2018-01-01T18:18:55.537Z,92.19
2018-01-01T18:19:55.525Z,91.34
2018-01-01T18:20:55.549Z,91.91
2018-01-01T18:21:55.548Z,92.10
2018-01-01T18:22:55.496Z,92.19
2018-01-01T18:23:55.557Z,92.10
2018-01-01T18:24:55.498Z,92.00
2018-01-01T18:25:55.461Z,91.91
2018-01-01T18:26:55.447Z,92.00
2018-01-01T18:27:55.459Z,91.91
2018-01-01T18:28:55.489Z,91.62
2018-01-01T18:29:55.458Z,91.72
2018-01-01T18:30:55.406Z,92.19
2018-01-01T18:31:55.419Z,91.62
2018-01-01T18:32:55.426Z,92.00
2018-01-01T18:33:55.439Z,91.62
2018-01-01T18:34:55.449Z,92.10
2018-01-01T18:35:55.384Z,91.53
2018-01-01T18:36:55.341Z,92.10
2018-01-01T18:37:55.329Z,91.62
2018-01-01T18:38:55.361Z,91.91
2018-01-01T18:39:55.338Z,91.81
2018-01-01T18:40:55.367Z,91.53
2018-01-01T18:41:55.297Z,92.10
2018-01-01T18:42:55.297Z,91.72
2018-01-01T18:43:55.386Z,91.62
2018-01-01T18:44:55.258Z,91.91
2018-01-01T18:45:55.258Z,92.29
2018-01-01T18:46:55.257Z,91.91
2018-01-01T18:47:55.218Z,92.00
2018-01-01T18:48:55.211Z,91.91
2018-01-01T18:49:55.198Z,92.00
2018-01-01T18:50:55.219Z,91.62
2018-01-01T18:51:55.219Z,91.62
2018-01-01T18:52:55.163Z,91.62
2018-01-01T18:53:55.178Z,91.91
2018-01-01T18:54:55.183Z,91.91
2018-01-01T18:55:55.130Z,92.00
2018-01-01T18:56:55.142Z,92.00
2018-01-01T18:57:55.138Z,91.91
2018-01-01T18:58:55.148Z,91.91
2018-01-01T18:59:55.098Z,91.43
2018-01-01T19:00:55.079Z,92.19
2018-01-01T19:01:55.064Z,91.91
2018-01-01T19:02:55.099Z,91.43
2018-01-01T19:03:55.044Z,92.19
2018-01-01T19:04:55.057Z,91.62
2018-01-01T19:05:55.058Z,91.91
2018-01-01T19:06:55.020Z,91.91
2018-01-01T19:07:55.018Z,91.72
2018-01-01T19:08:54.990Z,91.62
2018-01-01T19:09:55.018Z,91.62
2018-01-01T19:10:54.978Z,92.00
2018-01-01T19:11:54.954Z,91.72
2018-01-01T19:12:54.978Z,92.19
2018-01-01T19:13:54.978Z,92.00
2018-01-01T19:14:54.941Z,92.19
2018-01-01T19:15:54.946Z,91.34
2018-01-01T19:16:54.905Z,91.43
2018-01-01T19:17:54.889Z,92.19
2018-01-01T19:18:54.898Z,91.43
2018-01-01T19:19:54.870Z,91.62
2018-01-01T19:20:54.857Z,91.43
2018-01-01T19:21:54.858Z,91.81
2018-01-01T19:22:54.858Z,91.91
2018-01-01T19:23:54.858Z,91.81
2018-01-01T19:24:54.813Z,91.72
2018-01-01T19:25:54.820Z,91.72
2018-01-01T19:26:54.791Z,91.43
2018-01-01T19:27:54.781Z,92.10
2018-01-01T19:28:54.801Z,92.00
2018-01-01T19:29:54.788Z,92.00
2018-01-01T19:30:54.746Z,92.00
2018-01-01T19:31:54.735Z,92.10
2018-01-01T19:32:54.736Z,91.62
2018-01-01T19:33:54.737Z,92.19
2018-01-01T19:34:54.712Z,91.24
2018-01-01T19:35:54.739Z,91.72
2018-01-01T19:36:54.681Z,91.81
2018-01-01T19:37:54.698Z,91.72
2018-01-01T19:38:54.808Z,92.19
2018-01-01T19:39:54.651Z,91.81
2018-01-01T19:40:54.661Z,91.62
2018-01-01T19:41:54.660Z,92.00
2018-01-01T19:42:54.659Z,91.43
2018-01-01T19:43:54.614Z,91.91
2018-01-01T19:44:54.598Z,91.91
2018-01-01T19:45:54.591Z,92.00
2018-01-01T19:46:54.617Z,91.91
2018-01-01T19:47:54.563Z,91.72
2018-01-01T19:48:54.549Z,91.81
2018-01-01T19:49:54.579Z,91.72
2018-01-01T19:50:54.537Z,91.81
2018-01-01T19:51:54.544Z,91.91
2018-01-01T19:52:54.538Z,91.72
2018-01-01T19:53:54.504Z,91.72
2018-01-01T19:54:54.498Z,91.72
2018-01-01T19:55:54.476Z,91.72
2018-01-01T19:56:54.463Z,91.72
2018-01-01T19:57:54.500Z,91.62
2018-01-01T19:58:54.458Z,91.72
2018-01-01T19:59:54.482Z,91.72
2018-01-01T20:00:54.419Z,91.72
2018-01-01T20:01:54.574Z,91.72
2018-01-01T20:02:54.418Z,91.72
2018-01-01T20:03:54.421Z,92.00
2018-01-01T20:04:54.419Z,91.81
2018-01-01T20:05:54.369Z,92.00
2018-01-01T20:06:54.352Z,91.72
2018-01-01T20:07:54.341Z,91.81
2018-01-01T20:08:54.331Z,91.72
2018-01-01T20:09:54.342Z,91.91
2018-01-01T20:10:54.309Z,91.81
2018-01-01T20:11:54.300Z,91.81
2018-01-01T20:12:54.295Z,91.91
2018-01-01T20:13:54.279Z,92.10
2018-01-01T20:14:54.298Z,92.19
2018-01-01T20:15:54.298Z,92.29
2018-01-01T20:16:54.244Z,92.10
2018-01-01T20:17:54.234Z,92.33
2018-01-01T20:18:54.258Z,92.24
2018-01-01T20:19:54.218Z,92.38
2018-01-01T20:20:54.202Z,92.38
2018-01-01T20:21:54.218Z,92.29
2018-01-01T20:22:54.177Z,92.29
2018-01-01T20:23:54.178Z,92.33
2018-01-01T20:24:54.180Z,92.80
2018-01-01T20:25:54.177Z,92.52
2018-01-01T20:26:54.178Z,92.90
2018-01-01T20:27:54.146Z,92.71
2018-01-01T20:28:54.138Z,93.37
2018-01-01T20:29:54.137Z,92.71
2018-01-01T20:30:54.097Z,92.80
2018-01-01T20:31:54.100Z,93.08
2018-01-01T20:32:54.097Z,93.08
2018-01-01T20:33:54.072Z,92.90
2018-01-01T20:34:54.082Z,93.18
2018-01-01T20:35:54.062Z,92.52
2018-01-01T20:36:54.049Z,93.27
2018-01-01T20:37:54.062Z,93.27
2018-01-01T20:38:54.017Z,93.37
2018-01-01T20:39:54.019Z,93.18
2018-01-01T20:40:54.017Z,93.27
2018-01-01T20:41:53.977Z,93.75
2018-01-01T20:42:53.985Z,93.56
2018-01-01T20:43:53.977Z,93.75
2018-01-01T20:44:53.979Z,93.27
2018-01-01T20:45:53.944Z,93.75
2018-01-01T20:46:53.937Z,93.65
2018-01-01T20:47:53.937Z,93.56
2018-01-01T20:48:53.943Z,93.56
2018-01-01T20:49:53.898Z,93.27
2018-01-01T20:50:53.897Z,93.46
2018-01-01T20:51:53.945Z,93.56
2018-01-01T20:52:53.941Z,93.84
2018-01-01T20:53:53.924Z,93.84
2018-01-01T20:54:53.914Z,93.56
2018-01-01T20:55:53.832Z,93.75
2018-01-01T20:56:53.885Z,93.75
2018-01-01T20:57:53.879Z,93.75
2018-01-01T20:58:53.863Z,93.84
2018-01-01T20:59:53.905Z,93.56
2018-01-01T21:00:53.848Z,93.65
2018-01-01T21:01:53.838Z,94.32
2018-01-01T21:02:53.752Z,94.23
2018-01-01T21:03:53.744Z,94.23
2018-01-01T21:04:53.738Z,94.13
2018-01-01T21:05:53.800Z,94.23
2018-01-01T21:06:53.780Z,94.13
2018-01-01T21:07:53.769Z,93.94
2018-01-01T21:08:53.761Z,94.13
2018-01-01T21:09:53.748Z,93.84
2018-01-01T21:10:53.739Z,94.42
2018-01-01T21:11:53.732Z,93.94
2018-01-01T21:12:53.717Z,94.32
2018-01-01T21:13:53.712Z,94.23
2018-01-01T21:14:53.701Z,94.32
2018-01-01T21:15:53.698Z,94.51
2018-01-01T21:16:53.684Z,94.23
2018-01-01T21:17:53.660Z,94.13
2018-01-01T21:18:53.649Z,94.04
2018-01-01T21:19:53.638Z,94.51
2018-01-01T21:20:53.625Z,94.42
2018-01-01T21:21:53.618Z,93.94
2018-01-01T21:22:53.602Z,94.04
2018-01-01T21:23:53.597Z,94.23
2018-01-01T21:24:53.592Z,94.79
2018-01-01T21:25:53.581Z,94.98
2018-01-01T21:26:53.571Z,94.79
2018-01-01T21:27:53.553Z,94.79
2018-01-01T21:28:53.544Z,94.79
2018-01-01T21:29:53.526Z,94.60
2018-01-01T21:30:53.517Z,94.89
2018-01-01T21:31:53.510Z,94.98
2018-01-01T21:32:53.498Z,94.89
2018-01-01T21:33:53.485Z,94.70
2018-01-01T21:34:53.401Z,94.89
2018-01-01T21:35:53.613Z,94.98
2018-01-01T21:36:53.407Z,94.51
2018-01-01T21:37:53.449Z,94.32
2018-01-01T21:38:53.436Z,93.94
2018-01-01T21:39:53.427Z,93.84
2018-01-01T21:40:53.348Z,94.13
2018-01-01T21:41:53.400Z,94.42
2018-01-01T21:42:53.390Z,94.51
2018-01-01T21:43:53.380Z,94.04
2018-01-01T21:44:53.373Z,94.32
2018-01-01T21:45:53.362Z,94.70
2018-01-01T21:46:53.343Z,94.70
2018-01-01T21:47:53.334Z,94.51
2018-01-01T21:48:53.329Z,94.60
2018-01-01T21:49:53.315Z,94.70
2018-01-01T21:50:53.303Z,94.98
2018-01-01T21:51:53.285Z,94.89
2018-01-01T21:52:53.288Z,94.70
2018-01-01T21:53:53.270Z,94.70
2018-01-01T21:54:53.262Z,94.70
2018-01-01T21:55:53.243Z,94.70
2018-01-01T21:56:53.236Z,94.89
2018-01-01T21:57:53.224Z,94.70
2018-01-01T21:58:53.220Z,94.70
2018-01-01T21:59:53.205Z,94.84
2018-01-01T22:00:53.236Z,95.41
2018-01-01T22:01:53.187Z,95.31
2018-01-01T22:02:53.175Z,95.31
2018-01-01T22:03:53.103Z,95.60
2018-01-01T22:04:53.150Z,95.41
2018-01-01T22:05:53.140Z,95.22
2018-01-01T22:06:53.127Z,94.93
2018-01-01T22:07:53.119Z,94.84
2018-01-01T22:08:53.069Z,95.03
2018-01-01T22:09:53.030Z,95.41
2018-01-01T22:10:53.029Z,95.31
2018-01-01T22:11:52.990Z,95.31
2018-01-01T22:12:52.991Z,95.31
2018-01-01T22:13:52.989Z,95.50
2018-01-01T22:14:53.109Z,95.31
2018-01-01T22:15:52.989Z,95.03
2018-01-01T22:16:52.949Z,95.31
2018-01-01T22:17:52.948Z,94.93
2018-01-01T22:18:52.949Z,95.12
2018-01-01T22:19:52.950Z,95.12
2018-01-01T22:20:52.909Z,96.64
2018-01-01T22:21:52.909Z,97.92
2018-01-01T22:22:52.909Z,97.69
2018-01-01T22:23:52.869Z,97.69
2018-01-01T22:24:52.852Z,96.55
2018-01-01T22:25:52.840Z,96.03
2018-01-01T22:26:52.914Z,95.17
2018-01-01T22:27:52.833Z,94.42
2018-01-01T22:28:52.932Z,94.79
2018-01-01T22:29:52.798Z,94.93
2018-01-01T22:30:52.799Z,94.93
2018-01-01T22:31:52.846Z,95.31
2018-01-01T22:32:52.795Z,96.45
2018-01-01T22:33:52.793Z,96.97
2018-01-01T22:34:52.753Z,97.54
2018-01-01T22:35:52.753Z,98.58
2018-01-01T22:36:52.754Z,99.25
2018-01-01T22:37:52.752Z,99.25
2018-01-01T22:38:52.713Z,99.91
2018-01-01T22:39:52.702Z,99.99
2018-01-01T22:40:52.715Z,99.99
2018-01-01T22:41:52.712Z,99.99
2018-01-01T22:42:52.673Z,99.99
2018-01-01T22:43:52.672Z,99.99
2018-01-01T22:44:52.674Z,99.99
2018-01-01T22:45:52.672Z,99.99
2018-01-01T22:46:52.633Z,99.99
2018-01-01T22:47:52.633Z,99.99
2018-01-01T22:48:52.632Z,99.99
2018-01-01T22:49:52.632Z,99.99
2018-01-01T22:50:52.595Z,99.99
2018-01-01T22:51:52.593Z,99.99
2018-01-01T22:52:52.593Z,99.99
2018-01-01T22:53:52.594Z,99.99
2018-01-01T22:54:52.552Z,99.99
2018-01-01T22:55:52.553Z,99.99
2018-01-01T22:56:52.553Z,99.99
2018-01-01T22:57:52.552Z,99.99
2018-01-01T22:58:52.513Z,99.99
2018-01-01T22:59:52.513Z,99.99
2018-01-01T23:00:52.513Z,99.99
2018-01-01T23:01:52.472Z,99.99
2018-01-01T23:02:52.473Z,99.99
2018-01-01T23:03:52.473Z,99.99
2018-01-01T23:04:52.438Z,99.99
2018-01-01T23:05:52.492Z,99.99
2018-01-01T23:06:52.448Z,99.99
2018-01-01T23:07:52.442Z,99.99
2018-01-01T23:08:52.443Z,99.99
2018-01-01T23:09:52.429Z,99.99
2018-01-01T23:10:52.430Z,99.99
2018-01-01T23:11:52.389Z,99.99
2018-01-01T23:12:52.375Z,99.99
2018-01-01T23:13:52.505Z,99.99
2018-01-01T23:14:52.349Z,99.99
2018-01-01T23:15:52.393Z,99.99
2018-01-01T23:16:52.398Z,99.99
2018-01-01T23:17:52.350Z,99.99
2018-01-01T23:18:52.316Z,99.99
2018-01-01T23:19:52.402Z,99.99
2018-01-01T23:20:52.337Z,99.99
2018-01-01T23:21:52.277Z,99.99
2018-01-01T23:22:52.486Z,99.99
2018-01-01T23:23:52.270Z,99.99
2018-01-01T23:24:52.272Z,99.99
2018-01-01T23:25:52.285Z,99.99
2018-01-01T23:26:52.225Z,99.99
2018-01-01T23:27:52.230Z,99.99
2018-01-01T23:28:52.238Z,99.99
2018-01-01T23:29:52.197Z,99.99
2018-01-01T23:30:52.244Z,99.99
2018-01-01T23:31:52.196Z,99.99
2018-01-01T23:32:52.197Z,99.99
2018-01-01T23:33:52.190Z,99.99
2018-01-01T23:34:52.162Z,99.99
2018-01-01T23:35:52.132Z,99.99
2018-01-01T23:36:52.122Z,99.99
2018-01-01T23:37:52.168Z,99.99
2018-01-01T23:38:52.118Z,99.99
2018-01-01T23:39:52.118Z,99.99
2018-01-01T23:40:52.111Z,99.99
2018-01-01T23:41:52.109Z,99.99
2018-01-01T23:42:52.077Z,99.99
2018-01-01T23:43:52.078Z,99.99
2018-01-01T23:44:52.039Z,99.99
2018-01-01T23:45:52.047Z,99.99
2018-01-01T23:46:52.039Z,99.99
2018-01-01T23:47:52.039Z,99.99
2018-01-01T23:48:52.030Z,99.99
2018-01-01T23:49:51.994Z,99.99
2018-01-01T23:50:51.990Z,99.99
2018-01-01T23:51:51.998Z,99.99
2018-01-01T23:52:52.012Z,99.99
2018-01-01T23:53:52.024Z,99.99
2018-01-01T23:54:51.960Z,99.99
2018-01-01T23:55:51.958Z,99.99
2018-01-01T23:56:51.948Z,99.99
2018-01-01T23:57:52.130Z,99.99
2018-01-01T23:58:51.931Z,99.99
2018-01-01T23:59:51.910Z,99.99
